createdAt,value
2022-12-01T00:00:55.881Z,69.83
2022-12-01T00:04:59.274Z,70.42
2022-12-01T00:09:20.963Z,70.25
2022-12-01T00:13:24.093Z,70.39
2022-12-01T00:17:27.317Z,70.16
2022-12-01T00:21:30.776Z,70.36
2022-12-01T00:25:35.134Z,69.95
2022-12-01T00:29:38.651Z,69.97
2022-12-01T00:33:41.657Z,70.12
2022-12-01T00:37:45.777Z,69.87
2022-12-01T00:41:50.682Z,70.49
2022-12-01T00:45:53.857Z,70.51
2022-12-01T00:49:57.432Z,71.02
2022-12-01T00:54:00.938Z,70.83
2022-12-01T00:58:06.455Z,71.43
2022-12-01T01:02:10.567Z,71.01
2022-12-01T01:06:14.484Z,71.53
2022-12-01T01:10:18.253Z,71.27
2022-12-01T01:14:24.830Z,71.08
2022-12-01T01:18:28.979Z,70.83
2022-12-01T01:22:32.587Z,71.11
2022-12-01T01:26:37.323Z,70.42
2022-12-01T01:30:42.660Z,70.72
2022-12-01T01:34:47.316Z,70.61
2022-12-01T01:38:51.757Z,70.70
2022-12-01T01:42:55.536Z,70.51
2022-12-01T01:47:00.589Z,70.89
2022-12-01T01:51:04.393Z,70.94
2022-12-01T01:55:09.828Z,70.29
2022-12-01T01:59:18.198Z,70.16
2022-12-01T02:03:24.333Z,70.75
2022-12-01T02:07:27.561Z,70.94
2022-12-01T02:11:57.166Z,70.75
2022-12-01T02:16:11.911Z,70.20
2022-12-01T02:20:52.906Z,70.41
2022-12-01T02:25:20.179Z,70.21
2022-12-01T02:30:08.303Z,70.42
2022-12-01T02:34:22.156Z,70.26
2022-12-01T02:38:30.334Z,69.83
2022-12-01T02:42:50.948Z,70.29
2022-12-01T02:46:59.196Z,70.15
2022-12-01T02:51:09.535Z,70.52
2022-12-01T02:55:14.922Z,70.32
2022-12-01T02:59:18.243Z,70.70
2022-12-01T03:03:38.554Z,70.83
2022-12-01T03:07:59.039Z,70.24
2022-12-01T03:12:15.785Z,70.33
2022-12-01T03:16:27.880Z,70.77
2022-12-01T03:20:37.137Z,71.28
2022-12-01T03:24:46.488Z,71.38
2022-12-01T03:28:54.197Z,70.80
2022-12-01T03:33:03.510Z,71.43
2022-12-01T03:37:12.267Z,71.13
2022-12-01T03:41:22.360Z,71.64
2022-12-01T03:45:31.534Z,71.31
2022-12-01T03:49:36.929Z,71.75
2022-12-01T03:53:50.107Z,71.71
2022-12-01T03:57:59.586Z,71.26
2022-12-01T04:02:03.716Z,71.20
2022-12-01T04:06:08.514Z,71.50
2022-12-01T04:10:11.878Z,71.46
2022-12-01T04:14:17.063Z,71.28
2022-12-01T04:18:21.460Z,71.51
2022-12-01T04:22:25.173Z,71.07
2022-12-01T04:26:28.820Z,71.10
2022-12-01T04:30:33.662Z,71.75
2022-12-01T04:34:37.274Z,71.46
2022-12-01T04:38:40.838Z,71.40
2022-12-01T04:42:43.875Z,71.55
2022-12-01T04:46:49.015Z,71.95
2022-12-01T04:50:52.451Z,72.21
2022-12-01T04:54:56.010Z,71.86
2022-12-01T04:59:00.592Z,72.44
2022-12-01T05:03:06.936Z,72.46
2022-12-01T05:07:12.181Z,71.91
2022-12-01T05:11:17.998Z,72.00
2022-12-01T05:15:21.655Z,71.39
2022-12-01T05:19:44.303Z,71.26
2022-12-01T05:23:47.498Z,71.06
2022-12-01T05:27:51.166Z,70.62
2022-12-01T05:31:54.268Z,70.63
2022-12-01T05:35:59.295Z,70.79
2022-12-01T05:40:03.005Z,70.85
2022-12-01T05:44:06.382Z,71.22
2022-12-01T05:48:11.121Z,71.03
2022-12-01T05:52:15.603Z,71.72
2022-12-01T05:56:19.211Z,71.21
2022-12-01T06:00:23.169Z,71.41
2022-12-01T06:04:26.228Z,71.48
2022-12-01T06:08:32.185Z,72.03
2022-12-01T06:12:35.745Z,71.68
2022-12-01T06:16:39.253Z,71.45
2022-12-01T06:20:42.319Z,71.28
2022-12-01T06:24:47.144Z,71.19
2022-12-01T06:28:50.304Z,70.94
2022-12-01T06:32:53.333Z,71.14
2022-12-01T06:36:56.911Z,70.72
2022-12-01T06:41:01.963Z,70.91
2022-12-01T06:45:06.266Z,70.64
2022-12-01T06:49:12.693Z,70.62
2022-12-01T06:53:16.024Z,70.65
2022-12-01T06:57:21.155Z,70.69
2022-12-01T07:01:25.331Z,70.54
2022-12-01T07:05:28.494Z,70.36
2022-12-01T07:09:32.000Z,71.16
2022-12-01T07:13:37.440Z,70.80
2022-12-01T07:17:40.559Z,70.39
2022-12-01T07:21:43.755Z,70.75
2022-12-01T07:25:47.401Z,70.83
2022-12-01T07:29:52.448Z,70.59
2022-12-01T07:33:55.520Z,70.59
2022-12-01T07:37:59.098Z,70.45
2022-12-01T07:42:02.687Z,70.32
2022-12-01T07:46:10.210Z,70.68
2022-12-01T07:50:14.151Z,70.89
2022-12-01T07:54:20.318Z,71.39
2022-12-01T07:58:23.718Z,71.03
2022-12-01T08:02:28.272Z,71.09
2022-12-01T08:06:31.812Z,70.95
2022-12-01T08:10:35.186Z,71.13
2022-12-01T08:14:38.235Z,70.54
2022-12-01T08:18:43.726Z,71.07
2022-12-01T08:22:47.541Z,71.23
2022-12-01T08:26:51.064Z,70.86
2022-12-01T08:30:54.542Z,71.35
2022-12-01T08:34:59.563Z,70.65
2022-12-01T08:39:03.276Z,70.24
2022-12-01T08:43:06.413Z,69.73
2022-12-01T08:47:12.045Z,69.68
2022-12-01T08:51:20.595Z,69.88
2022-12-01T08:55:24.014Z,68.68
2022-12-01T08:59:27.503Z,68.83
2022-12-01T09:03:31.079Z,68.56
2022-12-01T09:07:36.585Z,69.17
2022-12-01T09:11:40.306Z,67.70
2022-12-01T09:15:44.332Z,67.78
2022-12-01T09:19:48.354Z,68.84
2022-12-01T09:23:53.404Z,68.47
2022-12-01T09:27:57.384Z,68.25
2022-12-01T09:32:02.427Z,67.91
2022-12-01T09:36:07.202Z,68.24
2022-12-01T09:40:16.835Z,66.94
2022-12-01T09:44:33.065Z,67.21
2022-12-01T09:48:43.283Z,67.56
2022-12-01T09:52:49.863Z,67.66
2022-12-01T09:56:56.754Z,67.41
2022-12-01T10:01:01.491Z,67.35
2022-12-01T10:05:07.940Z,65.31
2022-12-01T10:09:22.515Z,67.73
2022-12-01T10:13:30.086Z,67.36
2022-12-01T10:17:44.971Z,67.65
2022-12-01T10:22:05.585Z,68.53
2022-12-01T10:26:15.238Z,67.68
2022-12-01T10:30:22.078Z,67.80
2022-12-01T10:34:28.846Z,67.43
2022-12-01T10:38:37.147Z,67.44
2022-12-01T10:42:44.607Z,67.76
2022-12-01T10:46:52.872Z,67.38
2022-12-01T10:51:00.604Z,67.08
2022-12-01T10:55:05.984Z,67.40
2022-12-01T10:59:27.093Z,67.09
2022-12-01T11:03:35.071Z,65.80
2022-12-01T11:07:47.213Z,66.86
2022-12-01T11:11:57.557Z,66.91
2022-12-01T11:16:02.986Z,65.67
2022-12-01T11:20:42.936Z,67.10
2022-12-01T11:24:59.166Z,67.54
2022-12-01T11:29:05.036Z,66.34
2022-12-01T11:33:08.673Z,65.77
2022-12-01T11:37:19.161Z,66.48
2022-12-01T11:41:35.315Z,66.64
2022-12-01T11:45:41.629Z,63.99
2022-12-01T11:49:47.660Z,64.72
2022-12-01T11:53:51.450Z,63.96
2022-12-01T11:57:59.662Z,64.14
2022-12-01T12:02:19.538Z,63.81
2022-12-01T12:06:43.458Z,62.54
2022-12-01T12:10:57.593Z,63.78
2022-12-01T12:15:13.674Z,62.61
2022-12-01T12:20:00.080Z,60.89
2022-12-01T12:24:35.765Z,63.02
2022-12-01T12:28:57.146Z,63.04
2022-12-01T12:33:24.056Z,63.38
2022-12-01T12:37:36.406Z,63.93
2022-12-01T12:41:46.143Z,62.95
2022-12-01T12:46:08.022Z,64.29
2022-12-01T12:50:25.172Z,64.48
2022-12-01T12:54:33.602Z,64.26
2022-12-01T12:58:42.961Z,65.06
2022-12-01T13:02:50.300Z,64.20
2022-12-01T13:07:04.701Z,64.27
2022-12-01T13:11:15.632Z,63.67
2022-12-01T13:15:21.552Z,63.83
2022-12-01T13:19:29.892Z,64.64
2022-12-01T13:23:37.400Z,63.51
2022-12-01T13:27:44.474Z,63.32
2022-12-01T13:31:49.927Z,62.73
2022-12-01T13:36:15.458Z,63.09
2022-12-01T13:40:25.631Z,62.67
2022-12-01T13:44:33.730Z,62.28
2022-12-01T13:48:52.378Z,64.09
2022-12-01T13:53:13.113Z,64.26
2022-12-01T13:57:28.592Z,64.44
2022-12-01T14:01:47.038Z,64.17
2022-12-01T14:05:58.474Z,64.52
2022-12-01T14:10:29.050Z,65.08
2022-12-01T14:14:39.247Z,63.81
2022-12-01T14:18:50.171Z,64.67
2022-12-01T14:23:06.379Z,65.63
2022-12-01T14:27:12.442Z,64.97
2022-12-01T14:31:17.813Z,65.37
2022-12-01T14:35:21.675Z,64.24
2022-12-01T14:39:28.743Z,63.94
2022-12-01T14:43:50.087Z,64.27
2022-12-01T14:48:02.213Z,65.30
2022-12-01T14:52:08.682Z,65.01
2022-12-01T14:56:16.901Z,64.98
2022-12-01T15:00:22.504Z,64.37
2022-12-01T15:04:26.970Z,65.50
2022-12-01T15:12:56.432Z,66.42
2022-12-01T15:17:01.219Z,66.16
2022-12-01T15:21:11.329Z,66.07
2022-12-01T15:25:16.973Z,66.00
2022-12-01T15:29:24.883Z,66.24
2022-12-01T15:33:36.808Z,66.04
2022-12-01T15:37:46.694Z,66.03
2022-12-01T15:41:55.909Z,66.83
2022-12-01T15:46:05.319Z,67.30
2022-12-01T15:50:24.167Z,66.80
2022-12-01T15:54:31.538Z,66.47
2022-12-01T15:58:38.391Z,67.16
2022-12-01T16:02:41.574Z,66.75
2022-12-01T16:06:54.493Z,66.69
2022-12-01T16:11:18.569Z,67.94
2022-12-01T16:15:23.289Z,66.67
2022-12-01T16:19:31.743Z,67.19
2022-12-01T16:23:35.459Z,66.64
2022-12-01T16:27:42.656Z,67.93
2022-12-01T16:32:12.394Z,67.48
2022-12-01T16:36:09.902Z,67.85
2022-12-01T16:40:15.479Z,67.19
2022-12-01T16:44:28.616Z,68.28
2022-12-01T16:48:35.496Z,68.34
2022-12-01T16:52:46.094Z,68.64
2022-12-01T16:56:50.077Z,68.17
2022-12-01T17:00:55.323Z,68.20
2022-12-01T17:04:58.943Z,68.84
2022-12-01T17:09:02.090Z,68.60
2022-12-01T17:13:05.448Z,68.75
2022-12-01T17:17:10.501Z,68.53
2022-12-01T17:21:14.321Z,68.85
2022-12-01T17:25:18.005Z,68.79
2022-12-01T17:29:21.663Z,69.32
2022-12-01T17:33:26.772Z,69.01
2022-12-01T17:37:31.117Z,68.86
2022-12-01T17:41:35.853Z,68.96
2022-12-01T17:45:42.516Z,69.57
2022-12-01T17:49:47.470Z,69.12
2022-12-01T17:53:51.057Z,69.01
2022-12-01T17:57:54.090Z,69.18
2022-12-01T18:01:57.765Z,69.20
2022-12-01T18:06:06.297Z,69.82
2022-12-01T18:10:10.215Z,69.43
2022-12-01T18:14:13.752Z,69.97
2022-12-01T18:18:17.988Z,69.27
2022-12-01T18:22:22.738Z,69.36
2022-12-01T18:26:27.870Z,69.69
2022-12-01T18:30:31.599Z,69.02
2022-12-01T18:34:35.198Z,69.39
2022-12-01T18:38:40.373Z,69.76
2022-12-01T18:42:43.553Z,69.91
2022-12-01T18:46:47.464Z,69.32
2022-12-01T18:50:56.317Z,69.10
2022-12-01T18:55:03.683Z,69.30
2022-12-01T18:59:09.527Z,69.41
2022-12-01T19:03:12.798Z,69.69
2022-12-01T19:07:16.468Z,69.77
2022-12-01T19:11:22.312Z,69.82
2022-12-01T19:15:25.937Z,69.70
2022-12-01T19:19:31.912Z,69.29
2022-12-01T19:23:40.258Z,68.95
2022-12-01T19:27:48.313Z,69.60
2022-12-01T19:31:56.199Z,69.24
2022-12-01T19:36:05.118Z,69.52
2022-12-01T19:40:11.134Z,69.25
2022-12-01T19:44:20.029Z,69.49
2022-12-01T19:48:24.100Z,69.21
2022-12-01T19:52:27.717Z,69.33
2022-12-01T19:56:32.485Z,69.37
2022-12-01T20:00:38.552Z,69.76
2022-12-01T20:04:42.130Z,69.58
2022-12-01T20:08:46.516Z,69.27
2022-12-01T20:12:50.306Z,69.85
2022-12-01T20:16:55.771Z,69.79
2022-12-01T20:21:11.174Z,69.63
2022-12-01T20:25:15.330Z,70.18
2022-12-01T20:29:22.166Z,69.64
2022-12-01T20:33:27.257Z,69.37
2022-12-01T20:37:31.187Z,69.35
2022-12-01T20:41:35.237Z,68.68
2022-12-01T20:45:39.083Z,69.13
2022-12-01T20:49:47.090Z,69.70
2022-12-01T20:54:19.837Z,68.98
2022-12-01T20:58:16.169Z,68.99
2022-12-01T21:02:20.119Z,69.17
2022-12-01T21:06:25.778Z,69.37
2022-12-01T21:10:29.494Z,69.64
2022-12-01T21:14:38.308Z,69.60
2022-12-01T21:18:48.774Z,68.96
2022-12-01T21:22:55.404Z,69.19
2022-12-01T21:27:01.624Z,69.45
2022-12-01T21:31:17.224Z,69.61
2022-12-01T21:35:23.018Z,69.47
2022-12-01T21:39:28.565Z,69.46
2022-12-01T21:43:38.098Z,69.90
2022-12-01T21:47:43.139Z,69.52
2022-12-01T21:51:47.198Z,69.87
2022-12-01T21:55:52.099Z,69.86
2022-12-01T22:00:00.175Z,70.46
2022-12-01T22:04:11.157Z,70.39
2022-12-01T22:08:24.840Z,69.84
2022-12-01T22:12:30.662Z,69.94
2022-12-01T22:16:36.360Z,70.25
2022-12-01T22:20:39.610Z,69.93
2022-12-01T22:24:44.927Z,70.25
2022-12-01T22:28:54.500Z,69.73
2022-12-01T22:33:00.493Z,70.06
2022-12-01T22:37:04.386Z,69.64
2022-12-01T22:41:12.221Z,69.72
2022-12-01T22:45:26.047Z,69.95
2022-12-01T22:49:30.901Z,69.81
2022-12-01T22:53:34.369Z,69.99
2022-12-01T22:57:37.948Z,69.69
2022-12-01T23:01:48.337Z,70.61
2022-12-01T23:05:55.029Z,69.56
2022-12-01T23:10:02.874Z,69.36
2022-12-01T23:14:10.750Z,69.93
2022-12-01T23:18:17.491Z,70.43
2022-12-01T23:22:22.866Z,69.83
2022-12-01T23:26:26.350Z,69.55
2022-12-01T23:30:30.249Z,69.90
2022-12-01T23:34:35.700Z,69.95
2022-12-01T23:38:40.196Z,69.87
2022-12-01T23:42:44.127Z,70.08
2022-12-01T23:46:48.649Z,69.46
2022-12-01T23:50:56.097Z,69.74
2022-12-01T23:54:59.225Z,69.49
2022-12-01T23:59:03.026Z,69.52
